createdAt,value
2022-10-17T00:00:22.961Z,101100.13
2022-10-17T00:02:50.681Z,101106.44
2022-10-17T00:05:18.579Z,101109.16
2022-10-17T00:07:46.326Z,101117.28
2022-10-17T00:10:14.201Z,101110.38
2022-10-17T00:12:41.964Z,101114.84
2022-10-17T00:15:10.331Z,101122.88
2022-10-17T00:17:39.386Z,101124.78
2022-10-17T00:20:08.359Z,101118.56
2022-10-17T00:25:09.449Z,101121.47
2022-10-17T00:27:37.468Z,101117.00
2022-10-17T00:30:06.685Z,101123.25
2022-10-17T00:32:34.576Z,101124.13
2022-10-17T00:35:04.114Z,101118.94
2022-10-17T00:37:31.913Z,101123.34
2022-10-17T00:40:00.027Z,101122.50
2022-10-17T00:42:28.830Z,101119.78
2022-10-17T00:45:17.025Z,101123.44
2022-10-17T00:47:49.348Z,101124.31
2022-10-17T00:50:20.607Z,101126.97
2022-10-17T00:52:50.047Z,101121.66
2022-10-17T00:55:20.970Z,101126.16
2022-10-17T00:57:49.359Z,101118.28
2022-10-17T01:00:18.361Z,101120.81
2022-10-17T01:02:46.492Z,101112.69
2022-10-17T01:05:16.371Z,101117.56
2022-10-17T01:07:46.649Z,101125.50
2022-10-17T01:10:15.206Z,101127.31
2022-10-17T01:12:56.421Z,101118.47
2022-10-17T01:15:37.856Z,101128.94
2022-10-17T01:18:14.729Z,101120.00
2022-10-17T01:21:08.128Z,101127.09
2022-10-17T01:23:55.276Z,101122.84
2022-10-17T01:26:31.426Z,101123.78
2022-10-17T01:29:25.031Z,101120.28
2022-10-17T01:32:00.899Z,101122.03
2022-10-17T01:34:35.929Z,101116.63
2022-10-17T01:37:07.888Z,101110.50
2022-10-17T01:39:45.517Z,101098.19
2022-10-17T01:42:20.826Z,101108.97
2022-10-17T01:44:55.453Z,101099.19
2022-10-17T01:47:30.012Z,101109.00
2022-10-17T01:50:02.760Z,101099.41
2022-10-17T01:52:35.119Z,101108.28
2022-10-17T01:55:09.114Z,101106.75
2022-10-17T01:57:40.758Z,101103.44
2022-10-17T02:00:13.822Z,101112.34
2022-10-17T02:02:45.252Z,101114.94
2022-10-17T02:05:13.513Z,101108.84
2022-10-17T02:07:42.473Z,101110.63
2022-10-17T02:10:17.077Z,101112.53
2022-10-17T02:12:56.105Z,101100.31
2022-10-17T02:15:43.550Z,101116.97
2022-10-17T02:18:27.065Z,101106.47
2022-10-17T02:21:01.293Z,101105.63
2022-10-17T02:23:38.835Z,101093.41
2022-10-17T02:26:13.570Z,101100.50
2022-10-17T02:28:48.478Z,101096.19
2022-10-17T02:31:18.710Z,101100.56
2022-10-17T02:33:54.138Z,101093.66
2022-10-17T02:36:25.805Z,101095.38
2022-10-17T02:38:56.188Z,101105.91
2022-10-17T02:41:25.440Z,101096.38
2022-10-17T02:43:57.653Z,101099.81
2022-10-17T02:46:29.644Z,101100.78
2022-10-17T02:49:03.499Z,101104.38
2022-10-17T02:51:37.859Z,101099.03
2022-10-17T02:54:11.283Z,101099.97
2022-10-17T02:56:44.103Z,101099.88
2022-10-17T02:59:15.262Z,101100.66
2022-10-17T03:01:44.986Z,101104.91
2022-10-17T03:04:16.080Z,101104.09
2022-10-17T03:06:44.391Z,101105.00
2022-10-17T03:09:12.119Z,101103.13
2022-10-17T03:11:40.123Z,101096.19
2022-10-17T03:14:09.548Z,101101.28
2022-10-17T03:16:37.658Z,101105.66
2022-10-17T03:19:06.103Z,101100.47
2022-10-17T03:21:37.794Z,101101.28
2022-10-17T03:24:07.765Z,101111.66
2022-10-17T03:26:35.598Z,101109.88
2022-10-17T03:29:04.611Z,101115.16
2022-10-17T03:31:34.432Z,101110.91
2022-10-17T03:34:03.976Z,101109.97
2022-10-17T03:36:32.123Z,101113.53
2022-10-17T03:39:01.208Z,101106.47
2022-10-17T03:41:29.290Z,101108.22
2022-10-17T03:43:57.040Z,101104.72
2022-10-17T03:46:25.636Z,101116.03
2022-10-17T03:48:55.284Z,101113.28
2022-10-17T03:51:23.398Z,101115.72
2022-10-17T03:53:55.511Z,101113.97
2022-10-17T03:56:26.256Z,101113.06
2022-10-17T03:59:03.978Z,101117.47
2022-10-17T04:01:34.841Z,101123.72
2022-10-17T04:04:02.740Z,101126.28
2022-10-17T04:06:33.729Z,101134.25
2022-10-17T04:09:02.191Z,101137.84
2022-10-17T04:11:54.671Z,101139.63
2022-10-17T04:14:23.576Z,101144.91
2022-10-17T04:16:53.439Z,101137.09
2022-10-17T04:19:22.277Z,101148.59
2022-10-17T04:21:50.901Z,101144.31
2022-10-17T04:24:20.062Z,101141.06
2022-10-17T04:27:10.650Z,101134.94
2022-10-17T04:29:43.935Z,101132.34
2022-10-17T04:32:17.341Z,101135.13
2022-10-17T04:34:57.045Z,101133.34
2022-10-17T04:37:25.327Z,101138.63
2022-10-17T04:39:55.306Z,101144.97
2022-10-17T04:42:24.387Z,101151.19
2022-10-17T04:44:54.381Z,101149.44
2022-10-17T04:47:24.996Z,101151.28
2022-10-17T04:49:52.967Z,101154.88
2022-10-17T04:52:22.901Z,101161.06
2022-10-17T04:54:51.536Z,101172.44
2022-10-17T04:57:19.876Z,101173.31
2022-10-17T04:59:58.995Z,101173.22
2022-10-17T05:03:01.800Z,101168.03
2022-10-17T05:05:30.673Z,101161.06
2022-10-17T05:07:58.723Z,101156.56
2022-10-17T05:10:30.684Z,101163.44
2022-10-17T05:12:59.306Z,101167.75
2022-10-17T05:15:32.298Z,101167.75
2022-10-17T05:18:00.072Z,101158.91
2022-10-17T05:20:29.837Z,101171.09
2022-10-17T05:22:59.976Z,101168.47
2022-10-17T05:25:32.609Z,101171.22
2022-10-17T05:28:00.352Z,101168.75
2022-10-17T05:30:28.315Z,101177.53
2022-10-17T05:33:01.939Z,101185.59
2022-10-17T05:35:30.051Z,101188.25
2022-10-17T05:37:58.841Z,101186.53
2022-10-17T05:40:26.907Z,101184.03
2022-10-17T05:42:55.600Z,101184.91
2022-10-17T05:45:24.784Z,101184.97
2022-10-17T05:47:52.981Z,101183.16
2022-10-17T05:50:24.180Z,101187.56
2022-10-17T05:53:09.482Z,101200.88
2022-10-17T05:55:41.687Z,101180.84
2022-10-17T05:58:14.306Z,101188.66
2022-10-17T06:00:58.209Z,101183.94
2022-10-17T06:03:25.899Z,101181.97
2022-10-17T06:05:55.903Z,101179.88
2022-10-17T06:08:24.108Z,101177.06
2022-10-17T06:10:52.223Z,101186.44
2022-10-17T06:13:20.520Z,101183.66
2022-10-17T06:15:51.691Z,101189.72
2022-10-17T06:18:19.566Z,101194.78
2022-10-17T06:20:48.001Z,101194.63
2022-10-17T06:23:19.772Z,101204.97
2022-10-17T06:25:59.928Z,101195.31
2022-10-17T06:28:27.914Z,101188.13
2022-10-17T06:30:55.985Z,101204.63
2022-10-17T06:33:24.197Z,101213.09
2022-10-17T06:35:53.137Z,101220.53
2022-10-17T06:38:24.713Z,101225.19
2022-10-17T06:40:57.720Z,101235.38
2022-10-17T06:43:27.878Z,101231.66
2022-10-17T06:45:59.598Z,101229.47
2022-10-17T06:48:33.825Z,101237.84
2022-10-17T06:51:27.831Z,101242.28
2022-10-17T06:53:59.879Z,101251.72
2022-10-17T06:56:46.336Z,101251.53
2022-10-17T06:59:30.177Z,101258.38
2022-10-17T07:02:03.702Z,101260.91
2022-10-17T07:04:31.788Z,101259.13
2022-10-17T07:07:02.917Z,101266.19
2022-10-17T07:09:33.597Z,101274.78
2022-10-17T07:12:01.544Z,101268.31
2022-10-17T07:14:32.099Z,101270.03
2022-10-17T07:17:00.635Z,101272.38
2022-10-17T07:19:30.269Z,101277.78
2022-10-17T07:21:58.082Z,101291.38
2022-10-17T07:24:26.583Z,101282.44
2022-10-17T07:27:05.406Z,101284.75
2022-10-17T07:29:33.807Z,101295.75
2022-10-17T07:32:21.849Z,101293.53
2022-10-17T07:34:49.710Z,101288.72
2022-10-17T07:37:17.576Z,101286.53
2022-10-17T07:39:51.537Z,101280.03
2022-10-17T07:42:20.629Z,101283.41
2022-10-17T07:44:48.372Z,101289.81
2022-10-17T07:47:16.889Z,101299.34
2022-10-17T07:49:45.849Z,101298.63
2022-10-17T07:52:14.450Z,101301.25
2022-10-17T07:54:42.257Z,101301.09
2022-10-17T07:57:10.508Z,101297.59
2022-10-17T07:59:39.803Z,101299.53
2022-10-17T08:02:08.446Z,101288.06
2022-10-17T08:04:36.696Z,101285.56
2022-10-17T08:07:19.093Z,101294.63
2022-10-17T08:09:48.739Z,101298.88
2022-10-17T08:12:16.525Z,101295.16
2022-10-17T08:14:45.771Z,101293.03
2022-10-17T08:17:13.461Z,101297.31
2022-10-17T08:19:41.669Z,101295.50
2022-10-17T08:22:09.763Z,101300.59
2022-10-17T08:24:37.489Z,101305.13
2022-10-17T08:27:11.233Z,101302.06
2022-10-17T08:29:39.117Z,101301.16
2022-10-17T08:32:10.000Z,101309.38
2022-10-17T08:34:38.049Z,101315.84
2022-10-17T08:37:05.834Z,101328.66
2022-10-17T08:39:33.587Z,101327.25
2022-10-17T08:42:20.385Z,101330.34
2022-10-17T08:44:56.776Z,101313.19
2022-10-17T08:47:29.726Z,101320.56
2022-10-17T08:50:00.663Z,101335.09
2022-10-17T08:52:34.281Z,101342.66
2022-10-17T08:55:02.146Z,101346.66
2022-10-17T08:57:30.141Z,101347.75
2022-10-17T08:59:58.077Z,101346.94
2022-10-17T09:02:51.143Z,101349.38
2022-10-17T09:05:45.427Z,101353.56
2022-10-17T09:08:23.513Z,101369.94
2022-10-17T09:10:59.069Z,101357.91
2022-10-17T09:13:42.104Z,101348.13
2022-10-17T09:16:23.161Z,101355.03
2022-10-17T09:19:02.085Z,101344.63
2022-10-17T09:21:40.764Z,101347.94
2022-10-17T09:24:16.711Z,101347.34
2022-10-17T09:26:46.320Z,101356.19
2022-10-17T09:29:21.049Z,101369.94
2022-10-17T09:31:54.731Z,101369.38
2022-10-17T09:34:27.468Z,101374.66
2022-10-17T09:36:56.096Z,101384.22
2022-10-17T09:39:26.120Z,101389.69
2022-10-17T09:41:55.638Z,101386.09
2022-10-17T09:44:25.126Z,101388.44
2022-10-17T09:47:23.795Z,101397.75
2022-10-17T09:49:53.176Z,101409.75
2022-10-17T09:52:26.493Z,101406.81
2022-10-17T09:54:58.380Z,101414.44
2022-10-17T09:57:26.481Z,101406.97
2022-10-17T09:59:59.977Z,101401.69
2022-10-17T10:02:29.946Z,101396.84
2022-10-17T10:05:04.599Z,101404.75
2022-10-17T10:07:35.828Z,101397.06
2022-10-17T10:10:06.242Z,101404.31
2022-10-17T10:12:37.006Z,101405.97
2022-10-17T10:15:34.523Z,101400.94
2022-10-17T10:18:02.653Z,101405.56
2022-10-17T10:20:34.961Z,101402.44
2022-10-17T10:23:18.260Z,101414.97
2022-10-17T10:25:58.429Z,101417.03
2022-10-17T10:28:29.385Z,101417.34
2022-10-17T10:30:58.372Z,101417.78
2022-10-17T10:33:29.941Z,101413.84
2022-10-17T10:36:03.605Z,101417.81
2022-10-17T10:38:33.077Z,101418.69
2022-10-17T10:41:04.951Z,101431.19
2022-10-17T10:43:38.133Z,101413.53
2022-10-17T10:46:17.192Z,101423.03
2022-10-17T10:48:52.311Z,101418.13
2022-10-17T10:51:28.192Z,101421.41
2022-10-17T10:54:15.388Z,101428.53
2022-10-17T10:56:49.852Z,101438.81
2022-10-17T10:59:26.502Z,101451.38
2022-10-17T11:02:02.097Z,101441.94
2022-10-17T11:04:37.254Z,101439.78
2022-10-17T11:07:12.349Z,101448.97
2022-10-17T11:09:50.257Z,101443.88
2022-10-17T11:12:22.571Z,101447.66
2022-10-17T11:14:55.515Z,101443.19
2022-10-17T11:17:33.296Z,101455.19
2022-10-17T11:20:11.255Z,101453.53
2022-10-17T11:22:44.483Z,101450.63
2022-10-17T11:25:23.436Z,101436.63
2022-10-17T11:27:51.276Z,101431.41
2022-10-17T11:30:19.198Z,101440.63
2022-10-17T11:32:52.209Z,101436.47
2022-10-17T11:35:25.358Z,101438.28
2022-10-17T11:38:04.899Z,101441.22
2022-10-17T11:40:36.991Z,101449.63
2022-10-17T11:43:11.347Z,101449.53
2022-10-17T11:45:44.186Z,101447.31
2022-10-17T11:48:18.384Z,101443.78
2022-10-17T11:53:54.281Z,101445.91
2022-10-17T11:56:33.083Z,101446.56
2022-10-17T11:59:15.782Z,101451.09
2022-10-17T12:01:49.682Z,101443.47
2022-10-17T12:04:30.595Z,101441.97
2022-10-17T12:07:15.298Z,101447.25
2022-10-17T12:09:47.902Z,101448.88
2022-10-17T12:12:27.286Z,101457.97
2022-10-17T12:14:55.849Z,101457.06
2022-10-17T12:17:32.993Z,101459.47
2022-10-17T12:20:31.441Z,101464.72
2022-10-17T12:23:04.789Z,101466.44
2022-10-17T12:28:15.822Z,101470.78
2022-10-17T12:30:55.886Z,101464.25
2022-10-17T12:33:29.804Z,101463.06
2022-10-17T12:36:40.626Z,101473.78
2022-10-17T12:39:53.383Z,101472.22
2022-10-17T12:42:51.024Z,101473.44
2022-10-17T12:45:49.477Z,101475.97
2022-10-17T12:48:51.181Z,101480.00
2022-10-17T12:51:35.213Z,101483.34
2022-10-17T12:54:12.965Z,101481.34
2022-10-17T12:56:44.483Z,101471.63
2022-10-17T12:59:17.807Z,101473.59
2022-10-17T13:01:49.005Z,101478.16
2022-10-17T13:04:17.776Z,101480.16
2022-10-17T13:06:48.224Z,101479.88
2022-10-17T13:09:23.912Z,101490.28
2022-10-17T13:11:52.150Z,101494.75
2022-10-17T13:14:23.481Z,101498.53
2022-10-17T13:16:53.962Z,101501.69
2022-10-17T13:19:24.434Z,101507.31
2022-10-17T13:21:53.353Z,101509.88
2022-10-17T13:24:22.283Z,101512.97
2022-10-17T13:26:50.138Z,101503.63
2022-10-17T13:29:19.510Z,101517.59
2022-10-17T13:31:54.267Z,101508.09
2022-10-17T13:34:23.563Z,101517.72
2022-10-17T13:36:54.374Z,101522.00
2022-10-17T13:39:38.419Z,101513.31
2022-10-17T13:42:22.676Z,101522.56
2022-10-17T13:44:51.072Z,101516.19
2022-10-17T13:47:24.942Z,101525.38
2022-10-17T13:49:55.374Z,101527.22
2022-10-17T13:52:26.269Z,101530.44
2022-10-17T13:54:56.245Z,101524.41
2022-10-17T13:57:27.370Z,101533.44
2022-10-17T13:59:58.187Z,101537.66
2022-10-17T14:02:29.497Z,101534.06
2022-10-17T14:05:22.997Z,101541.50
2022-10-17T14:10:43.464Z,101537.38
2022-10-17T14:13:20.852Z,101537.91
2022-10-17T14:15:48.951Z,101533.59
2022-10-17T14:18:21.762Z,101529.13
2022-10-17T14:21:32.125Z,101531.81
2022-10-17T14:23:41.516Z,101525.97
2022-10-17T14:26:12.754Z,101535.63
2022-10-17T14:28:41.939Z,101532.25
2022-10-17T14:31:14.438Z,101525.75
2022-10-17T14:33:50.582Z,101531.25
2022-10-17T14:36:20.397Z,101532.78
2022-10-17T14:38:51.013Z,101543.28
2022-10-17T14:44:22.106Z,101548.69
2022-10-17T14:46:54.647Z,101551.03
2022-10-17T14:49:28.376Z,101550.53
2022-10-17T14:52:17.540Z,101558.19
2022-10-17T14:54:47.709Z,101558.03
2022-10-17T14:57:18.880Z,101560.72
2022-10-17T14:59:55.419Z,101562.81
2022-10-17T15:02:24.043Z,101564.47
2022-10-17T15:04:53.465Z,101565.84
2022-10-17T15:07:22.102Z,101568.66
2022-10-17T15:09:51.488Z,101579.56
2022-10-17T15:12:21.221Z,101576.91
2022-10-17T15:14:50.633Z,101583.16
2022-10-17T15:17:21.598Z,101587.19
2022-10-17T15:19:50.455Z,101590.72
2022-10-17T15:22:19.665Z,101587.28
2022-10-17T15:24:48.207Z,101586.44
2022-10-17T15:27:17.778Z,101587.66
2022-10-17T15:29:46.087Z,101586.31
2022-10-17T15:32:13.924Z,101593.22
2022-10-17T15:34:42.105Z,101584.28
2022-10-17T15:37:17.911Z,101585.25
2022-10-17T15:39:52.992Z,101584.53
2022-10-17T15:42:21.492Z,101585.53
2022-10-17T15:44:50.193Z,101582.31
2022-10-17T15:47:25.654Z,101580.72
2022-10-17T15:49:53.577Z,101590.69
2022-10-17T15:52:21.511Z,101605.28
2022-10-17T15:54:51.020Z,101614.88
2022-10-17T15:57:22.739Z,101625.94
2022-10-17T15:59:52.168Z,101622.19
2022-10-17T16:02:21.749Z,101635.50
2022-10-17T16:04:50.919Z,101633.91
2022-10-17T16:07:19.152Z,101643.56
2022-10-17T16:09:47.404Z,101643.75
2022-10-17T16:12:19.855Z,101645.53
2022-10-17T16:14:47.609Z,101651.91
2022-10-17T16:17:16.271Z,101655.56
2022-10-17T16:19:44.769Z,101660.97
2022-10-17T16:22:22.492Z,101660.22
2022-10-17T16:24:50.270Z,101663.03
2022-10-17T16:27:19.328Z,101666.81
2022-10-17T16:29:47.028Z,101664.16
2022-10-17T16:32:14.744Z,101666.13
2022-10-17T16:34:42.395Z,101673.47
2022-10-17T16:37:10.133Z,101678.78
2022-10-17T16:39:37.820Z,101686.09
2022-10-17T16:42:05.541Z,101690.78
2022-10-17T16:44:34.739Z,101686.53
2022-10-17T16:47:02.451Z,101690.06
2022-10-17T16:49:30.177Z,101699.81
2022-10-17T16:51:57.907Z,101695.50
2022-10-17T16:54:25.555Z,101692.19
2022-10-17T16:56:53.275Z,101684.25
2022-10-17T16:59:21.017Z,101690.69
2022-10-17T17:01:50.053Z,101690.41
2022-10-17T17:04:17.999Z,101697.88
2022-10-17T17:09:18.492Z,101699.13
2022-10-17T17:11:46.212Z,101697.28
2022-10-17T17:14:14.359Z,101708.13
2022-10-17T17:16:43.264Z,101715.25
2022-10-17T17:19:16.756Z,101712.84
2022-10-17T17:21:49.969Z,101719.13
2022-10-17T17:24:18.376Z,101721.00
2022-10-17T17:26:46.818Z,101725.50
2022-10-17T17:29:14.549Z,101723.88
2022-10-17T17:31:42.350Z,101724.13
2022-10-17T17:34:12.031Z,101723.38
2022-10-17T17:36:43.655Z,101728.69
2022-10-17T17:39:13.611Z,101727.28
2022-10-17T17:41:41.839Z,101733.78
2022-10-17T17:44:14.038Z,101733.13
2022-10-17T17:46:44.389Z,101736.59
2022-10-17T17:49:12.414Z,101731.78
2022-10-17T17:51:41.452Z,101747.84
2022-10-17T17:54:12.518Z,101756.13
2022-10-17T17:56:40.748Z,101758.66
2022-10-17T17:59:08.534Z,101755.19
2022-10-17T18:01:38.746Z,101757.06
2022-10-17T18:04:08.562Z,101761.69
2022-10-17T18:06:37.024Z,101763.56
2022-10-17T18:09:05.732Z,101767.75
2022-10-17T18:11:34.939Z,101766.59
2022-10-17T18:14:04.768Z,101760.50
2022-10-17T18:16:35.166Z,101763.91
2022-10-17T18:19:06.666Z,101771.41
2022-10-17T18:21:35.927Z,101779.22
2022-10-17T18:24:04.787Z,101776.47
2022-10-17T18:26:34.423Z,101781.25
2022-10-17T18:29:02.328Z,101776.81
2022-10-17T18:31:35.383Z,101781.34
2022-10-17T18:34:04.771Z,101776.88
2022-10-17T18:36:33.710Z,101780.38
2022-10-17T18:39:02.585Z,101780.47
2022-10-17T18:41:30.922Z,101787.50
2022-10-17T18:44:00.148Z,101786.94
2022-10-17T18:46:30.803Z,101795.56
2022-10-17T18:48:59.251Z,101800.72
2022-10-17T18:51:27.583Z,101802.59
2022-10-17T18:53:58.626Z,101800.84
2022-10-17T18:56:27.093Z,101797.41
2022-10-17T18:58:55.488Z,101798.38
2022-10-17T19:01:26.570Z,101801.06
2022-10-17T19:03:56.889Z,101798.38
2022-10-17T19:06:31.559Z,101807.22
2022-10-17T19:09:00.108Z,101804.53
2022-10-17T19:11:29.432Z,101808.03
2022-10-17T19:13:58.874Z,101809.13
2022-10-17T19:16:30.244Z,101818.03
2022-10-17T19:18:59.547Z,101817.00
2022-10-17T19:21:27.333Z,101811.84
2022-10-17T19:23:57.989Z,101814.53
2022-10-17T19:26:27.869Z,101805.97
2022-10-17T19:28:56.275Z,101815.88
2022-10-17T19:31:27.266Z,101818.13
2022-10-17T19:33:57.546Z,101816.56
2022-10-17T19:36:30.663Z,101814.97
2022-10-17T19:39:02.743Z,101821.94
2022-10-17T19:41:30.661Z,101821.06
2022-10-17T19:43:58.543Z,101829.94
2022-10-17T19:46:28.351Z,101838.81
2022-10-17T19:48:58.288Z,101838.72
2022-10-17T19:51:26.548Z,101836.19
2022-10-17T19:53:56.001Z,101840.66
2022-10-17T19:56:25.545Z,101845.13
2022-10-17T19:58:54.220Z,101848.69
2022-10-17T20:01:24.691Z,101851.53
2022-10-17T20:03:53.371Z,101847.31
2022-10-17T20:06:23.190Z,101846.50
2022-10-17T20:08:51.433Z,101848.28
2022-10-17T20:11:21.214Z,101854.34
2022-10-17T20:13:49.251Z,101842.06
2022-10-17T20:16:20.475Z,101844.72
2022-10-17T20:18:48.775Z,101846.66
2022-10-17T20:21:19.135Z,101845.94
2022-10-17T20:23:48.471Z,101850.22
2022-10-17T20:26:26.290Z,101854.59
2022-10-17T20:29:02.457Z,101851.88
2022-10-17T20:31:30.394Z,101855.59
2022-10-17T20:33:59.271Z,101853.97
2022-10-17T20:36:26.962Z,101855.75
2022-10-17T20:38:56.236Z,101857.44
2022-10-17T20:41:24.842Z,101857.31
2022-10-17T20:43:53.738Z,101862.53
2022-10-17T20:46:35.483Z,101862.53
2022-10-17T20:49:05.838Z,101861.81
2022-10-17T20:51:34.123Z,101858.56
2022-10-17T20:54:03.707Z,101861.22
2022-10-17T20:56:33.549Z,101855.22
2022-10-17T20:59:03.627Z,101857.94
2022-10-17T21:01:33.191Z,101856.25
2022-10-17T21:04:21.442Z,101859.78
2022-10-17T21:06:49.141Z,101865.16
2022-10-17T21:09:18.791Z,101866.84
2022-10-17T21:11:46.684Z,101859.88
2022-10-17T21:14:16.601Z,101874.94
2022-10-17T21:16:44.795Z,101869.63
2022-10-17T21:19:13.210Z,101869.56
2022-10-17T21:21:42.683Z,101873.25
2022-10-17T21:24:14.096Z,101872.53
2022-10-17T21:26:44.623Z,101871.59
2022-10-17T21:29:13.532Z,101879.44
2022-10-17T21:31:43.257Z,101881.06
2022-10-17T21:34:13.655Z,101875.81
2022-10-17T21:36:41.695Z,101874.31
2022-10-17T21:39:10.980Z,101876.16
2022-10-17T21:41:38.870Z,101879.63
2022-10-17T21:44:12.273Z,101869.03
2022-10-17T21:46:40.033Z,101881.53
2022-10-17T21:49:07.878Z,101880.06
2022-10-17T21:51:35.686Z,101889.72
2022-10-17T21:54:05.759Z,101888.81
2022-10-17T21:56:34.753Z,101898.50
2022-10-17T21:59:02.721Z,101887.94
2022-10-17T22:01:33.787Z,101887.03
2022-10-17T22:04:03.229Z,101882.63
2022-10-17T22:06:39.627Z,101882.88
2022-10-17T22:09:11.139Z,101880.31
2022-10-17T22:11:38.917Z,101883.03
2022-10-17T22:14:08.412Z,101889.19
2022-10-17T22:16:38.611Z,101891.63
2022-10-17T22:19:07.902Z,101882.88
2022-10-17T22:21:36.780Z,101887.34
2022-10-17T22:24:07.079Z,101895.44
2022-10-17T22:26:37.814Z,101898.91
2022-10-17T22:29:06.324Z,101893.59
2022-10-17T22:31:35.722Z,101901.63
2022-10-17T22:34:05.825Z,101903.38
2022-10-17T22:36:33.958Z,101891.88
2022-10-17T22:39:01.802Z,101893.56
2022-10-17T22:41:29.830Z,101901.56
2022-10-17T22:43:57.638Z,101892.88
2022-10-17T22:46:26.467Z,101892.16
2022-10-17T22:48:54.151Z,101888.72
2022-10-17T22:53:56.547Z,101881.91
2022-10-17T22:56:24.360Z,101875.72
2022-10-17T22:58:52.324Z,101881.88
2022-10-17T23:01:22.516Z,101873.03
2022-10-17T23:03:50.724Z,101874.06
2022-10-17T23:06:19.475Z,101867.09
2022-10-17T23:08:49.183Z,101869.69
2022-10-17T23:11:17.328Z,101869.75
2022-10-17T23:13:45.175Z,101870.63
2022-10-17T23:16:12.916Z,101872.38
2022-10-17T23:18:40.960Z,101865.34
2022-10-17T23:21:09.343Z,101871.50
2022-10-17T23:23:37.664Z,101877.53
2022-10-17T23:26:08.586Z,101878.47
2022-10-17T23:28:36.349Z,101877.66
2022-10-17T23:31:15.691Z,101879.44
2022-10-17T23:33:45.054Z,101869.81
2022-10-17T23:36:13.849Z,101868.22
2022-10-17T23:38:42.544Z,101871.72
2022-10-17T23:41:12.176Z,101874.25
2022-10-17T23:43:40.102Z,101874.25
2022-10-17T23:46:08.426Z,101868.19
2022-10-17T23:48:37.413Z,101866.53
2022-10-17T23:51:06.689Z,101864.69
2022-10-17T23:53:34.440Z,101871.91
2022-10-17T23:56:02.513Z,101879.00
2022-10-17T23:58:32.139Z,101866.63
